Portada
METAR-TAF:

METAR-TAF

Aeroports :

Sofia, Bulgària

latitud: 42-39N, longitud: 023-23E, altitud: 586 m

Observació

L'informe es va fer fa 31 minuts, a les 20:30 UTC
Vent calma
Temperatura 5°C
Humitat 65%
Pressió 1026 hPa
Visibilitat 10 km o més
sense núvols per sota de 1500 mi sense presència de cumulonimbus.

METAR: LBSF 222030Z 00000KT CAVOK 05/M01 Q1026 NOSIG

Hora: 23:01 (21:01 UTC)

Pronòstic

L'informe es va fer fa 4 hores i 1 minuts, a les 17:00 UTC
Pronòstic vàlid del 22 a les 18 UTC al 23 a les 18 UTC
Vent 4 kt amb direcció variable
Visibilitat 10 km o més
sense núvols per sota de 1500 mi sense presència de cumulonimbus.
Temporalment
l' 23 a les 02 UTC al 23 a les 06 UTC
Visibilitat: 4000 m
Núvols disperses a una alçada de 2000 ft
boirina
Evolucionant progressivament
l' 23 a les 08 UTC al 23 a les 10 UTC
Vent 10 kt del Oest/Nord-Oest

TAF: LBSF 221700Z 2218/2318 VRB04KT CAVOK TEMPO 2302/2306 4000 BR SCT020 BECMG 2308/2310 30010KT

Observacions i pronòstics meteorològics de més de 4000 aeroports (METAR i TAF).

Les estacions disponibles són els punts grocs i vermells al mapa.

Posi el ratolí al punt desitjat per veure el nom de l'estació.

Feu clic per veure les observacions i els pronòstics meteorològics.

Per canviar el mapa: feu clic els botons verds amb una creu de color negre per apropar; al botó verd amb un guió per allunyar la imatge; o en les fletxes verdes per a mapes adjacents.


METAR-TAF: